Time;durP1;ratioP1;P1;durP2;ratioP2;P2;SDS_P1;SDS_P2;PMS_P1;PMS_P2;Temp;Humidity;BMP_temperature;BMP_pressure;BME280_temperature;BME280_humidity;BME280_pressure;Samples;Min_cycle;Max_cycle;Signal;HPM_P1;HPM_P2
2022/10/08 00:01:40;;;;;;;24.70;12.80;;;;;;;11.09;67.30;99503.94;103337;1294;110360;-69
2022/10/08 00:04:11;;;;;;;23.80;13.10;;;;;;;11.07;67.29;99500.69;103518;1301;96622;-69
2022/10/08 00:06:40;;;;;;;23.20;12.60;;;;;;;11.05;67.45;99499.89;103490;1292;107169;-69
2022/10/08 00:09:07;;;;;;;25.50;13.30;;;;;;;11.04;67.51;99497.70;103379;1285;96517;-69
2022/10/08 00:11:39;;;;;;;24.00;12.70;;;;;;;11.01;67.63;99490.03;103500;1294;96544;-69
2022/10/08 00:14:08;;;;;;;23.20;12.90;;;;;;;11.02;67.52;99492.86;103463;1292;109776;-68
2022/10/08 00:16:40;;;;;;;23.70;12.20;;;;;;;11.00;67.56;99490.48;103339;1298;96518;-69
2022/10/08 00:19:13;;;;;;;22.50;12.50;;;;;;;10.99;67.57;99482.75;103455;1292;107572;-68
2022/10/08 00:21:45;;;;;;;23.50;12.20;;;;;;;10.99;67.73;99481.02;103430;1290;96519;-69
2022/10/08 00:24:20;;;;;;;27.90;12.70;;;;;;;10.99;67.71;99474.09;103357;1301;96624;-69
2022/10/08 00:26:50;;;;;;;24.00;13.00;;;;;;;10.99;67.87;99468.72;103323;1293;109477;-68
2022/10/08 00:29:21;;;;;;;21.90;11.90;;;;;;;11.00;67.83;99470.80;103288;1294;96622;-68
2022/10/08 00:31:50;;;;;;;26.10;12.10;;;;;;;11.00;67.90;99463.52;103271;1294;107457;-69
2022/10/08 00:34:22;;;;;;;23.30;11.90;;;;;;;11.00;68.03;99462.60;103225;1300;96571;-68
2022/10/08 00:36:53;;;;;;;22.00;12.10;;;;;;;11.01;68.09;99457.42;103239;1298;96662;-68
2022/10/08 00:39:24;;;;;;;21.70;12.30;;;;;;;11.01;68.10;99452.05;103472;1301;109893;-69
2022/10/08 00:41:54;;;;;;;23.50;11.80;;;;;;;11.02;68.19;99451.48;103297;1293;96555;-69
2022/10/08 00:44:41;;;;;;;24.40;12.10;;;;;;;11.03;68.24;99448.77;103280;1294;107517;-69
2022/10/08 00:47:39;;;;;;;22.20;12.20;;;;;;;11.03;68.46;99442.55;103218;1291;96508;-68
2022/10/08 00:50:12;;;;;;;23.10;12.10;;;;;;;11.02;68.42;99438.38;103252;1294;96552;-71
2022/10/08 00:52:55;;;;;;;22.70;11.60;;;;;;;11.02;68.41;99436.07;103458;1285;109713;-69
2022/10/08 00:55:29;;;;;;;22.90;11.30;;;;;;;11.01;68.37;99431.69;103475;1294;96657;-68
2022/10/08 00:58:06;;;;;;;22.20;11.40;;;;;;;10.99;68.62;99428.46;103411;1297;107524;-69
2022/10/08 16:50:42;;;;;;;25.50;12.00;;;;;;;17.45;54.85;99128.94;103319;1296;107823;-76
2022/10/08 16:53:10;;;;;;;24.90;11.90;;;;;;;17.41;54.93;99135.98;103140;1303;95408;-74
2022/10/08 16:55:38;;;;;;;23.40;10.90;;;;;;;17.35;54.91;99133.31;103186;1296;97237;-75
2022/10/08 16:58:06;;;;;;;28.10;10.30;;;;;;;17.31;54.83;99132.51;103107;1304;109770;-75
2022/10/08 17:00:35;;;;;;;23.10;10.40;;;;;;;17.26;55.00;99133.34;103063;1298;94281;-76
2022/10/08 17:03:03;;;;;;;22.20;11.00;;;;;;;17.24;55.01;99135.55;103058;1303;107442;-75
2022/10/08 17:05:31;;;;;;;27.10;11.00;;;;;;;17.21;55.04;99130.96;103085;1298;94245;-75
2022/10/08 17:08:00;;;;;;;23.30;11.50;;;;;;;17.20;55.16;99134.86;103134;1303;96607;-75
2022/10/08 17:10:28;;;;;;;23.80;11.40;;;;;;;17.18;55.18;99133.58;103147;1303;109804;-75
2022/10/08 17:12:56;;;;;;;26.60;12.60;;;;;;;17.17;55.23;99135.71;103231;1297;96620;-73
2022/10/08 17:15:25;;;;;;;26.40;13.30;;;;;;;17.15;55.37;99136.80;103146;1297;107615;-73
2022/10/08 17:17:52;;;;;;;30.30;13.00;;;;;;;17.12;55.31;99140.28;103182;1297;96647;-73
2022/10/08 17:20:23;;;;;;;30.90;15.90;;;;;;;17.10;55.48;99138.66;103285;1303;96481;-74
2022/10/08 17:22:51;;;;;;;29.50;15.70;;;;;;;17.09;55.59;99140.05;103152;1296;109374;-72
2022/10/08 17:25:19;;;;;;;27.60;14.70;;;;;;;17.06;55.58;99142.29;103050;1304;96370;-72
2022/10/08 17:27:47;;;;;;;27.40;14.00;;;;;;;17.05;55.56;99146.02;103153;1304;106437;-71
2022/10/08 17:30:14;;;;;;;29.30;14.60;;;;;;;17.03;55.60;99144.95;103073;1301;96495;-74
2022/10/08 17:32:42;;;;;;;28.40;13.70;;;;;;;17.00;55.82;99148.25;103112;1303;96604;-76
2022/10/08 17:35:10;;;;;;;30.50;15.10;;;;;;;16.97;55.70;99148.38;103028;1304;109661;-74
2022/10/08 17:37:38;;;;;;;28.70;14.60;;;;;;;16.92;55.82;99149.68;103030;1287;96643;-72
2022/10/08 17:40:06;;;;;;;29.80;14.00;;;;;;;16.87;55.81;99150.89;102998;1295;107401;-75
2022/10/08 17:42:35;;;;;;;28.00;13.60;;;;;;;16.82;55.95;99148.67;102975;1290;95414;-74
2022/10/08 17:45:03;;;;;;;28.00;13.00;;;;;;;16.79;56.14;99150.60;102881;1288;97150;-75
2022/10/08 17:47:31;;;;;;;25.30;11.20;;;;;;;16.76;56.11;99154.13;103044;1288;109959;-77
2022/10/08 17:49:59;;;;;;;25.30;11.90;;;;;;;16.73;56.08;99159.63;103023;1290;94809;-76
2022/10/08 17:52:27;;;;;;;23.90;11.50;;;;;;;16.70;56.32;99156.12;102987;1288;107606;-85
2022/10/08 17:54:54;;;;;;;23.70;11.10;;;;;;;16.68;56.24;99155.77;103188;1304;96647;-83
2022/10/08 17:57:24;;;;;;;21.40;10.20;;;;;;;16.67;56.44;99154.77;103208;1303;96555;-83
2022/10/08 17:59:52;;;;;;;23.50;10.60;;;;;;;16.68;56.46;99151.70;103190;1304;109769;-81
2022/10/08 18:02:20;;;;;;;22.30;10.40;;;;;;;16.69;56.55;99153.02;103242;1296;96451;-75
2022/10/08 18:04:48;;;;;;;22.50;9.60;;;;;;;16.69;56.39;99151.80;102916;1293;107498;-75
2022/10/08 18:07:16;;;;;;;22.70;9.70;;;;;;;16.68;56.51;99154.02;103073;1303;96562;-76
2022/10/08 18:09:44;;;;;;;24.10;10.60;;;;;;;16.66;56.59;99155.48;103231;1304;96536;-75
2022/10/08 18:12:11;;;;;;;22.90;10.40;;;;;;;16.63;56.65;99155.89;103149;1303;109791;-76
2022/10/08 18:14:39;;;;;;;21.80;10.50;;;;;;;16.60;56.55;99156.19;103082;1288;96484;-75
2022/10/08 18:17:07;;;;;;;24.00;10.60;;;;;;;16.57;56.80;99154.99;103038;1304;107133;-75
2022/10/08 18:19:35;;;;;;;21.40;10.40;;;;;;;16.55;56.70;99160.77;103079;1303;94196;-75
2022/10/08 18:22:03;;;;;;;20.10;10.50;;;;;;;16.52;56.80;99162.45;103085;1288;96612;-76
2022/10/08 18:24:31;;;;;;;21.10;9.40;;;;;;;16.49;56.99;99165.98;103083;1295;109740;-77
2022/10/08 18:27:00;;;;;;;22.30;10.30;;;;;;;16.47;56.89;99168.00;103026;1296;96560;-77
2022/10/08 18:29:28;;;;;;;23.10;10.10;;;;;;;16.44;56.89;99165.64;103166;1295;107332;-76
2022/10/08 18:31:56;;;;;;;20.10;10.20;;;;;;;16.40;57.01;99168.48;103136;1304;96650;-75
2022/10/08 18:34:24;;;;;;;22.50;10.90;;;;;;;16.38;57.13;99168.71;103154;1297;96442;-74
2022/10/08 18:36:55;;;;;;;22.10;10.20;;;;;;;16.34;57.16;99169.53;103129;1296;109559;-77
2022/10/08 18:39:25;;;;;;;22.50;10.40;;;;;;;16.31;57.13;99173.95;103096;1310;96539;-76
2022/10/08 18:41:57;;;;;;;22.40;10.10;;;;;;;16.28;57.11;99172.31;103091;1298;107805;-75
2022/10/08 18:44:25;;;;;;;20.80;9.70;;;;;;;16.26;57.21;99168.79;102877;1301;94809;-75
2022/10/08 18:46:53;;;;;;;20.20;9.50;;;;;;;16.23;57.17;99169.20;103036;1290;96519;-78
2022/10/08 18:49:29;;;;;;;18.80;9.30;;;;;;;16.19;57.24;99165.94;103307;1275;109774;-80
2022/10/08 18:51:59;;;;;;;23.10;9.50;;;;;;;16.16;57.43;99167.30;102925;1296;96570;-77
2022/10/08 18:54:27;;;;;;;21.10;9.20;;;;;;;16.13;57.47;99172.23;102941;1304;107663;-78
2022/10/08 18:56:57;;;;;;;21.40;10.00;;;;;;;16.12;57.44;99172.59;102930;1294;96652;-76
2022/10/08 18:59:26;;;;;;;21.10;9.40;;;;;;;16.09;57.56;99178.88;102897;1297;96602;-78
2022/10/08 19:01:54;;;;;;;19.40;9.50;;;;;;;16.07;57.75;99179.64;102960;1294;109889;-76
2022/10/08 19:04:26;;;;;;;21.00;9.50;;;;;;;16.04;57.68;99183.98;102992;1294;96432;-75
2022/10/08 19:06:54;;;;;;;23.20;10.80;;;;;;;16.02;57.76;99187.05;102970;1298;107472;-75
2022/10/08 19:09:21;;;;;;;23.10;10.00;;;;;;;16.00;57.82;99194.73;102844;1295;96531;-75
2022/10/08 19:11:52;;;;;;;23.70;11.70;;;;;;;15.98;57.91;99198.05;102949;1293;96555;-75
2022/10/08 19:14:22;;;;;;;24.10;10.60;;;;;;;15.94;57.89;99201.00;102927;1280;110150;-76
2022/10/08 19:16:50;;;;;;;23.80;10.50;;;;;;;15.91;58.00;99199.67;102963;1288;96551;-76
2022/10/08 19:19:22;;;;;;;23.20;11.40;;;;;;;15.89;58.15;99199.90;102826;1290;107702;-76
2022/10/08 19:21:50;;;;;;;21.90;10.30;;;;;;;15.88;58.21;99200.89;102905;1288;96517;-78
2022/10/08 19:24:23;;;;;;;24.70;11.10;;;;;;;15.87;58.23;99204.74;102924;1290;96960;-77
2022/10/08 19:26:54;;;;;;;21.70;9.90;;;;;;;15.86;58.39;99202.52;102769;1288;108821;-74
2022/10/08 19:29:27;;;;;;;24.10;10.70;;;;;;;15.84;58.37;99205.73;102861;1287;94251;-74
2022/10/08 19:31:55;;;;;;;24.00;10.80;;;;;;;15.82;58.32;99208.16;102909;1290;106356;-76
2022/10/08 19:34:26;;;;;;;22.20;10.80;;;;;;;15.80;58.43;99207.85;102788;1289;94843;-75
2022/10/08 19:36:54;;;;;;;21.20;10.70;;;;;;;15.78;58.42;99211.05;102838;1290;96532;-75
2022/10/08 19:39:25;;;;;;;21.60;10.50;;;;;;;15.75;58.45;99209.54;102839;1295;110026;-75
2022/10/08 19:41:53;;;;;;;22.40;11.80;;;;;;;15.71;58.68;99217.89;102626;1298;96557;-75
2022/10/08 19:44:21;;;;;;;22.50;11.20;;;;;;;15.69;58.65;99223.51;102758;1290;107579;-76
2022/10/08 19:46:49;;;;;;;25.90;11.00;;;;;;;15.65;58.67;99227.81;102765;1298;94576;-75
2022/10/08 19:49:18;;;;;;;22.30;10.90;;;;;;;15.61;58.69;99228.48;102837;1296;96629;-76
2022/10/08 19:51:46;;;;;;;26.20;11.10;;;;;;;15.57;58.76;99228.67;102849;1294;109702;-75
2022/10/08 19:54:14;;;;;;;24.60;11.70;;;;;;;15.54;58.82;99233.30;102881;1290;96637;-76
2022/10/08 19:56:43;;;;;;;25.10;11.80;;;;;;;15.48;58.76;99228.92;102981;1290;106926;-75
2022/10/08 19:59:11;;;;;;;31.80;16.20;;;;;;;15.44;58.79;99227.91;103033;1296;97285;-76
2022/10/08 20:01:40;;;;;;;23.90;10.80;;;;;;;15.41;59.06;99224.74;103033;1291;94748;-76
2022/10/08 20:04:09;;;;;;;26.90;10.70;;;;;;;15.40;58.97;99224.17;103050;1288;109774;-76
2022/10/08 20:06:38;;;;;;;21.70;10.10;;;;;;;15.38;59.08;99226.64;102994;1294;96564;-75
2022/10/08 20:09:11;;;;;;;23.10;10.60;;;;;;;15.36;59.20;99224.64;103065;1290;107525;-75
2022/10/08 20:11:41;;;;;;;22.90;10.20;;;;;;;15.35;59.24;99226.77;102996;1297;95157;-76
2022/10/08 20:14:10;;;;;;;22.40;10.90;;;;;;;15.31;59.25;99228.10;103019;1288;94282;-76
2022/10/08 20:16:40;;;;;;;25.70;10.80;;;;;;;15.29;59.24;99228.86;103112;1296;109844;-75
2022/10/08 20:19:19;;;;;;;27.00;11.70;;;;;;;15.26;59.33;99232.89;103129;1293;96632;-73
2022/10/08 20:21:52;;;;;;;23.20;11.10;;;;;;;15.22;59.30;99237.91;103060;1290;107523;-73
2022/10/08 20:24:20;;;;;;;23.30;11.30;;;;;;;15.18;59.33;99239.68;102958;1294;96632;-73
2022/10/08 20:26:49;;;;;;;24.10;12.10;;;;;;;15.14;59.45;99243.92;103085;1293;96532;-74
2022/10/08 20:29:20;;;;;;;23.00;10.40;;;;;;;15.11;59.49;99241.54;103080;1290;109848;-75
2022/10/08 20:31:52;;;;;;;21.50;10.70;;;;;;;15.09;59.61;99247.42;103078;1290;96594;-75
2022/10/08 20:34:25;;;;;;;24.00;11.50;;;;;;;15.07;59.59;99257.08;103028;1294;107512;-74
2022/10/08 20:36:54;;;;;;;23.60;12.10;;;;;;;15.05;59.67;99261.38;103023;1288;96609;-76
2022/10/08 20:39:22;;;;;;;24.00;12.20;;;;;;;15.02;59.78;99263.04;103041;1293;94348;-75
2022/10/08 20:41:50;;;;;;;22.50;11.50;;;;;;;14.99;59.85;99260.27;103071;1288;109773;-75
2022/10/08 20:44:19;;;;;;;22.90;11.70;;;;;;;14.98;59.97;99262.35;103037;1294;96577;-75
2022/10/08 20:46:49;;;;;;;19.70;10.40;;;;;;;14.97;59.99;99257.91;102984;1293;107904;-77
2022/10/08 20:49:18;;;;;;;21.70;10.80;;;;;;;14.98;60.14;99260.73;102991;1290;96615;-75
2022/10/08 20:51:46;;;;;;;22.50;11.50;;;;;;;14.97;60.11;99253.85;103099;1297;95030;-74
2022/10/08 20:54:16;;;;;;;21.70;10.80;;;;;;;14.96;60.14;99256.42;103208;1292;110923;-77
2022/10/08 20:56:45;;;;;;;21.50;10.10;;;;;;;14.95;60.22;99256.49;103116;1304;96640;-75
2022/10/08 20:59:15;;;;;;;21.90;10.40;;;;;;;14.95;60.41;99260.27;103019;1297;107320;-76
2022/10/08 21:01:43;;;;;;;21.80;9.90;;;;;;;14.95;60.50;99260.44;102960;1304;94514;-76
2022/10/08 21:04:13;;;;;;;22.40;10.40;;;;;;;14.95;60.48;99266.16;103018;1304;96447;-77
2022/10/08 21:06:45;;;;;;;19.80;10.20;;;;;;;14.94;60.69;99268.95;103038;1298;109662;-76
2022/10/08 21:09:15;;;;;;;25.30;12.10;;;;;;;14.90;60.65;99271.41;102995;1296;94527;-76
2022/10/08 21:11:45;;;;;;;22.50;11.00;;;;;;;14.86;60.58;99271.72;102974;1305;107591;-75
2022/10/08 21:14:17;;;;;;;22.90;11.40;;;;;;;14.81;60.63;99267.38;103074;1303;96620;-75
2022/10/08 21:16:46;;;;;;;22.60;12.60;;;;;;;14.76;60.66;99269.61;103001;1300;96632;-73
2022/10/08 21:19:21;;;;;;;38.70;22.40;;;;;;;14.72;60.72;99269.53;102974;1288;110010;-74
2022/10/08 21:21:51;;;;;;;25.80;12.40;;;;;;;14.69;60.82;99271.44;103069;1304;96648;-75
2022/10/08 21:24:19;;;;;;;25.30;12.20;;;;;;;14.67;60.96;99270.71;103029;1290;107122;-75
2022/10/08 21:26:47;;;;;;;24.10;12.20;;;;;;;14.65;60.91;99272.83;103026;1298;97277;-75
2022/10/08 21:29:16;;;;;;;28.80;13.10;;;;;;;14.64;61.10;99272.25;103038;1296;96542;-75
2022/10/08 21:31:44;;;;;;;28.40;14.00;;;;;;;14.63;61.17;99277.46;103011;1298;109642;-74
2022/10/08 21:34:11;;;;;;;27.80;13.60;;;;;;;14.63;61.30;99276.20;103115;1298;96655;-75
2022/10/08 21:36:40;;;;;;;27.20;13.40;;;;;;;14.64;61.55;99275.61;103020;1297;107158;-74
2022/10/08 21:39:15;;;;;;;27.50;15.00;;;;;;;14.66;62.17;99277.42;103050;1297;96629;-74
2022/10/08 21:41:45;;;;;;;27.70;14.90;;;;;;;14.68;61.95;99277.06;103098;1303;95371;-75
2022/10/08 21:44:13;;;;;;;27.50;15.60;;;;;;;14.69;61.83;99279.63;103130;1290;109706;-74
2022/10/08 21:46:41;;;;;;;32.60;15.80;;;;;;;14.71;61.53;99281.46;103034;1304;96517;-75
2022/10/08 21:49:19;;;;;;;25.60;14.40;;;;;;;14.71;61.65;99285.20;103046;1295;107578;-75
2022/10/08 21:51:47;;;;;;;31.00;16.20;;;;;;;14.70;61.67;99281.46;103009;1304;96469;-74
2022/10/08 21:54:16;;;;;;;27.80;14.90;;;;;;;14.71;61.70;99283.79;103038;1303;96539;-74
2022/10/08 21:56:45;;;;;;;32.40;16.30;;;;;;;14.70;61.71;99286.90;103020;1294;109731;-74
2022/10/08 21:59:15;;;;;;;27.40;15.40;;;;;;;14.69;61.96;99289.98;103002;1297;96529;-74
2022/10/08 22:01:49;;;;;;;26.80;14.90;;;;;;;14.69;62.00;99295.15;102928;1297;107767;-75
2022/10/08 22:04:21;;;;;;;27.30;16.30;;;;;;;14.69;62.17;99294.80;103086;1296;97215;-74
2022/10/08 22:06:54;;;;;;;27.60;15.30;;;;;;;14.68;62.29;99293.61;103028;1296;94849;-75
2022/10/08 22:09:25;;;;;;;30.10;16.50;;;;;;;14.68;62.07;99295.07;102901;1293;110438;-74
2022/10/08 22:11:58;;;;;;;31.80;18.20;;;;;;;14.67;62.32;99296.92;103007;1296;94825;-75
2022/10/08 22:14:27;;;;;;;26.40;16.00;;;;;;;14.67;62.29;99301.40;102835;1290;107591;-75
2022/10/08 22:16:55;;;;;;;33.70;17.40;;;;;;;14.65;62.49;99302.95;102917;1304;96656;-75
2022/10/08 22:19:24;;;;;;;35.20;16.30;;;;;;;14.64;62.58;99309.83;103192;1304;95632;-75
2022/10/08 22:21:52;;;;;;;29.90;18.40;;;;;;;14.64;62.62;99308.05;103004;1297;109742;-74
2022/10/08 22:24:22;;;;;;;35.50;20.70;;;;;;;14.64;62.70;99313.79;103048;1297;95180;-74
2022/10/08 22:26:51;;;;;;;33.60;19.40;;;;;;;14.64;62.99;99313.94;103071;1298;107504;-75
2022/10/08 22:29:21;;;;;;;30.90;17.90;;;;;;;14.64;63.29;99318.42;103073;1294;96559;-75
2022/10/08 22:31:49;;;;;;;35.80;22.60;;;;;;;14.65;63.00;99312.84;103065;1288;94322;-74
2022/10/08 22:34:17;;;;;;;35.60;22.70;;;;;;;14.66;63.08;99313.83;103055;1297;109507;-73
2022/10/08 22:36:44;;;;;;;34.00;21.30;;;;;;;14.66;63.21;99318.10;103092;1300;96369;-74
2022/10/08 22:39:13;;;;;;;34.20;21.70;;;;;;;14.67;63.56;99315.48;103074;1296;107546;-75
2022/10/08 22:41:41;;;;;;;35.70;21.60;;;;;;;14.68;63.35;99311.36;103116;1305;96537;-74
2022/10/08 22:44:09;;;;;;;36.70;22.60;;;;;;;14.68;63.32;99319.14;103078;1303;94343;-74
2022/10/08 22:46:39;;;;;;;37.80;22.60;;;;;;;14.69;63.25;99320.30;103105;1304;109475;-75
2022/10/08 22:49:11;;;;;;;47.50;29.00;;;;;;;14.69;63.24;99320.84;103208;1296;94215;-75
2022/10/08 22:51:39;;;;;;;36.00;23.40;;;;;;;14.70;63.46;99325.09;103039;1297;107334;-75
2022/10/08 22:54:08;;;;;;;34.00;23.30;;;;;;;14.70;63.84;99326.47;103116;1299;97673;-74
2022/10/08 22:56:36;;;;;;;37.50;22.60;;;;;;;14.70;63.63;99328.81;103082;1302;96633;-74
2022/10/08 22:59:05;;;;;;;35.80;22.90;;;;;;;14.70;63.69;99328.48;103036;1296;111427;-75
2022/10/08 23:01:33;;;;;;;38.10;25.40;;;;;;;14.70;63.52;99331.17;103118;1296;95349;-75
2022/10/08 23:04:01;;;;;;;38.60;25.90;;;;;;;14.69;63.67;99327.81;103105;1303;107178;-76
2022/10/08 23:06:32;;;;;;;41.60;24.00;;;;;;;14.68;63.86;99331.80;103094;1300;96525;-75
2022/10/08 23:09:11;;;;;;;41.60;24.90;;;;;;;14.68;63.90;99331.09;103007;1288;96627;-75
2022/10/08 23:11:39;;;;;;;38.00;24.60;;;;;;;14.68;63.87;99326.45;103064;1293;109848;-76
2022/10/08 23:14:09;;;;;;;37.00;23.70;;;;;;;14.69;63.99;99330.33;103052;1303;94275;-74
2022/10/08 23:16:36;;;;;;;37.50;24.70;;;;;;;14.69;63.89;99330.46;103033;1296;107338;-75
2022/10/08 23:19:08;;;;;;;38.60;25.60;;;;;;;14.70;63.83;99340.63;103018;1303;94248;-74
2022/10/08 23:21:38;;;;;;;37.20;24.40;;;;;;;14.68;64.13;99338.39;103047;1304;96494;-77
2022/10/08 23:24:12;;;;;;;38.90;23.20;;;;;;;14.67;64.45;99338.15;103042;1293;110365;-76
2022/10/08 23:26:40;;;;;;;34.80;22.50;;;;;;;14.66;64.38;99334.17;103051;1295;96560;-76
2022/10/08 23:29:10;;;;;;;37.30;22.90;;;;;;;14.66;64.58;99335.22;103030;1297;107261;-74
2022/10/08 23:31:38;;;;;;;36.70;23.30;;;;;;;14.67;64.42;99335.65;103018;1296;96605;-74
2022/10/08 23:34:10;;;;;;;37.60;23.70;;;;;;;14.68;64.48;99339.84;103075;1304;96621;-75
2022/10/08 23:36:44;;;;;;;42.70;24.00;;;;;;;14.68;64.48;99341.96;103059;1297;109645;-74
2022/10/08 23:39:15;;;;;;;35.20;23.40;;;;;;;14.69;64.63;99343.31;103110;1288;95271;-74
2022/10/08 23:41:45;;;;;;;40.30;25.90;;;;;;;14.70;64.77;99346.79;103068;1300;106601;-74
2022/10/08 23:44:13;;;;;;;40.20;24.60;;;;;;;14.71;64.60;99349.45;103090;1302;96493;-74
2022/10/08 23:46:41;;;;;;;36.70;24.00;;;;;;;14.70;64.65;99355.38;103086;1298;96530;-74
2022/10/08 23:49:08;;;;;;;41.00;23.60;;;;;;;14.70;64.71;99355.02;103082;1298;109817;-74
2022/10/08 23:51:37;;;;;;;42.50;28.00;;;;;;;14.69;64.87;99355.48;103140;1296;94229;-73
2022/10/08 23:54:05;;;;;;;44.00;24.80;;;;;;;14.68;64.88;99358.23;103074;1296;107469;-74
2022/10/08 23:56:32;;;;;;;37.60;23.70;;;;;;;14.66;64.86;99357.87;103087;1297;96677;-75
2022/10/08 23:59:00;;;;;;;40.50;24.50;;;;;;;14.63;64.93;99360.79;103050;1304;97228;-73
